Bayan - Daily weather history

Lat: 46.99 | Lon: 95.2 | Forecast for altitude: 1814m | Map

Bayan, Historical weather data

Weather station: ULAANBAATAR at 881.8km of Bayan
Station location: Lat 47.917 Lon 106.867 Altitude 1306m
Time Temperature Relative Temperature Wind Wind Gust Rel. humidity Dew Point Pressure Icon DescriptionDetails
00:00 5°C 2°C
150°

13 Km/h
N/A 12% -22°C 1019.0mb Scattered Clouds at 3000m
00:30 4°C 2°C
160°

7 Km/h
N/A 13% -22°C 1019.0mb Scattered Clouds at 3000m
01:00 2°C 2°C Variable at 2 Km/h N/A 15% -22°C 1019.0mb Scattered Clouds at 3000m
01:30 2°C 2°C Variable at 2 Km/h N/A 15% -22°C 1019.0mb
02:00 2°C 2°C Variable at 4 Km/h N/A 16% -21°C 1019.0mb
02:30 2°C 2°C Variable at 2 Km/h N/A 16% -21°C 1019.0mb
03:00 -2°C -2°C Variable at 2 Km/h N/A 29% -18°C 1019.0mb
03:30 -1°C -1°C Variable at 2 Km/h N/A 26% -18°C 1018.0mb
04:00 -2°C -2°C Variable at 2 Km/h N/A 29% -18°C 1018.0mb
04:30 -4°C -4°C Variable at 2 Km/h N/A 33% -18°C 1018.0mb
05:00 -3°C -3°C Variable at 2 Km/h N/A 31% -18°C 1018.0mb
05:30 -5°C -5°C Variable at 2 Km/h N/A 33% -19°C 1018.0mb
06:00 -5°C -5°C Variable at 2 Km/h N/A 36% -18°C 1018.0mb
06:30 -5°C -5°C Variable at 2 Km/h N/A 36% -18°C 1018.0mb
07:00 -9°C -9°C Variable at 2 Km/h N/A 48% -18°C 1018.0mb
07:30 -9°C -9°C Variable at 4 Km/h N/A 45% -19°C 1018.0mb
08:00 -8°C -8°C Calm N/A 45% -18°C 1018.0mb
08:30 -5°C -5°C Variable at 2 Km/h N/A 42% -16°C 1018.0mb
09:00 -2°C -2°C Calm N/A 31% -17°C 1018.0mb
09:30 1°C 1°C Variable at 2 Km/h N/A 23% -18°C 1018.0mb
10:00 2°C 2°C Calm N/A 21% -18°C 1018.0mb
10:30 4°C 4°C Calm N/A 18% -18°C 1017.0mb
11:00 6°C 6°C Variable at 2 Km/h N/A 16% -18°C 1017.0mb
11:30 7°C 7°C Variable at 2 Km/h N/A 14% -19°C 1017.0mb
Live Satellite Image
Weather maps
Bayan: Nearby areas

Local Time: Bayan, Mongolia

17 Oct 2019 | 11:35